sensor_id;sensor_type;location;lat;lon;timestamp;pressure;altitude;pressure_sealevel;temperature;humidity
27032;BME280;14580;52.918;9.214;2022-12-20T06:30:35;101148.06;;;9.16;100.00
27032;BME280;14580;52.918;9.214;2022-12-20T06:33:03;101158.22;;;9.19;100.00
27032;BME280;14580;52.918;9.214;2022-12-20T06:35:29;101146.59;;;9.12;100.00
27032;BME280;14580;52.918;9.214;2022-12-20T06:37:56;101129.41;;;9.16;100.00
27032;BME280;14580;52.918;9.214;2022-12-20T06:40:23;111204.31;;;9.16;100.00
27032;BME280;14580;52.918;9.214;2022-12-20T06:42:49;101147.22;;;9.16;100.00
27032;BME280;14580;52.918;9.214;2022-12-20T06:45:16;101138.28;;;9.07;100.00
27032;BME280;14580;52.918;9.214;2022-12-20T06:47:42;101132.19;;;9.08;100.00
27032;BME280;14580;52.918;9.214;2022-12-20T06:50:10;101127.81;;;9.10;100.00
27032;BME280;14580;52.918;9.214;2022-12-20T06:52:36;61451.03;;;-140.63;100.00
27032;BME280;14580;52.918;9.214;2022-12-20T06:55:03;61451.03;;;-140.63;100.00
27032;BME280;14580;52.918;9.214;2022-12-20T06:57:29;61451.03;;;-140.63;100.00
27032;BME280;14580;52.918;9.214;2022-12-20T06:59:56;61451.03;;;-140.63;100.00
27032;BME280;14580;52.918;9.214;2022-12-20T07:02:22;61451.03;;;-140.63;100.00
27032;BME280;14580;52.918;9.214;2022-12-20T07:04:49;61451.03;;;-140.63;100.00
27032;BME280;14580;52.918;9.214;2022-12-20T07:07:15;61451.03;;;-140.63;100.00
27032;BME280;14580;52.918;9.214;2022-12-20T07:09:42;61451.03;;;-140.63;100.00
27032;BME280;14580;52.918;9.214;2022-12-20T07:12:09;61451.03;;;-140.63;100.00
27032;BME280;14580;52.918;9.214;2022-12-20T07:14:35;61451.03;;;-140.63;100.00
27032;BME280;14580;52.918;9.214;2022-12-20T07:17:03;61451.03;;;-140.63;100.00
27032;BME280;14580;52.918;9.214;2022-12-20T07:19:29;61451.03;;;-140.63;100.00
27032;BME280;14580;52.918;9.214;2022-12-20T07:21:55;61451.03;;;-140.63;100.00
27032;BME280;14580;52.918;9.214;2022-12-20T07:24:22;61451.03;;;-140.63;100.00
27032;BME280;14580;52.918;9.214;2022-12-20T07:26:48;61451.03;;;-140.63;100.00
27032;BME280;14580;52.918;9.214;2022-12-20T07:29:15;61451.03;;;-140.63;100.00
27032;BME280;14580;52.918;9.214;2022-12-20T07:31:41;61451.03;;;10.22;100.00
27032;BME280;14580;52.918;9.214;2022-12-20T07:34:07;61451.03;;;-140.63;100.00
27032;BME280;14580;52.918;9.214;2022-12-20T07:36:34;61451.03;;;-140.63;100.00
27032;BME280;14580;52.918;9.214;2022-12-20T07:39:00;61451.03;;;-140.63;100.00
27032;BME280;14580;52.918;9.214;2022-12-20T07:41:26;61451.03;;;-140.63;100.00
27032;BME280;14580;52.918;9.214;2022-12-20T07:43:52;61451.03;;;-140.63;100.00
27032;BME280;14580;52.918;9.214;2022-12-20T07:46:19;61451.03;;;-140.63;100.00
27032;BME280;14580;52.918;9.214;2022-12-20T07:48:46;61451.03;;;-140.63;100.00
27032;BME280;14580;52.918;9.214;2022-12-20T07:51:34;61451.03;;;-140.63;100.00
27032;BME280;14580;52.918;9.214;2022-12-20T07:54:08;61451.03;;;-140.63;100.00
27032;BME280;14580;52.918;9.214;2022-12-20T07:56:40;61451.03;;;-140.63;100.00
27032;BME280;14580;52.918;9.214;2022-12-20T07:59:10;61451.03;;;-140.63;100.00
27032;BME280;14580;52.918;9.214;2022-12-20T08:01:37;61451.03;;;-140.63;100.00
27032;BME280;14580;52.918;9.214;2022-12-20T08:04:10;61451.03;;;-140.63;100.00
27032;BME280;14580;52.918;9.214;2022-12-20T08:06:39;61451.03;;;-140.63;100.00
27032;BME280;14580;52.918;9.214;2022-12-20T08:09:09;61451.03;;;-140.63;100.00
27032;BME280;14580;52.918;9.214;2022-12-20T08:11:39;61451.03;;;-140.63;100.00
27032;BME280;14580;52.918;9.214;2022-12-20T08:14:07;61451.03;;;-140.63;100.00
27032;BME280;14580;52.918;9.214;2022-12-20T08:16:34;61451.03;;;-140.63;100.00
27032;BME280;14580;52.918;9.214;2022-12-20T08:19:00;61451.03;;;-140.63;100.00
27032;BME280;14580;52.918;9.214;2022-12-20T08:21:27;61451.03;;;-140.63;100.00
27032;BME280;14580;52.918;9.214;2022-12-20T08:23:54;61451.03;;;-140.63;100.00
27032;BME280;14580;52.918;9.214;2022-12-20T08:26:20;61451.03;;;-140.63;100.00
27032;BME280;14580;52.918;9.214;2022-12-20T08:28:46;61451.03;;;-140.63;100.00
27032;BME280;14580;52.918;9.214;2022-12-20T08:31:12;61451.03;;;-140.63;100.00
27032;BME280;14580;52.918;9.214;2022-12-20T08:33:39;61451.03;;;-140.63;100.00
27032;BME280;14580;52.918;9.214;2022-12-20T08:36:09;61451.03;;;-140.63;100.00
27032;BME280;14580;52.918;9.214;2022-12-20T08:38:36;61451.03;;;-140.63;100.00
27032;BME280;14580;52.918;9.214;2022-12-20T08:41:10;61451.03;;;-140.63;100.00
27032;BME280;14580;52.918;9.214;2022-12-20T08:43:37;61451.03;;;-140.63;100.00
27032;BME280;14580;52.918;9.214;2022-12-20T08:46:05;61451.03;;;-140.63;100.00
27032;BME280;14580;52.918;9.214;2022-12-20T08:48:32;61451.03;;;-140.63;100.00
27032;BME280;14580;52.918;9.214;2022-12-20T08:51:03;61451.03;;;-140.63;100.00
27032;BME280;14580;52.918;9.214;2022-12-20T08:53:31;61451.03;;;-140.63;100.00
27032;BME280;14580;52.918;9.214;2022-12-20T08:56:18;61451.03;;;-140.63;100.00
27032;BME280;14580;52.918;9.214;2022-12-20T08:58:45;61451.03;;;-140.63;100.00
27032;BME280;14580;52.918;9.214;2022-12-20T09:01:16;61451.03;;;-140.63;100.00
27032;BME280;14580;52.918;9.214;2022-12-20T09:03:43;61451.03;;;-140.63;100.00
27032;BME280;14580;52.918;9.214;2022-12-20T09:06:18;61451.03;;;-140.63;100.00
27032;BME280;14580;52.918;9.214;2022-12-20T09:08:45;61451.03;;;-140.63;100.00
27032;BME280;14580;52.918;9.214;2022-12-20T09:13:44;61451.03;;;-140.63;100.00
27032;BME280;14580;52.918;9.214;2022-12-20T09:16:14;61451.03;;;-140.63;100.00
27032;BME280;14580;52.918;9.214;2022-12-20T09:18:41;61451.03;;;-140.63;100.00
27032;BME280;14580;52.918;9.214;2022-12-20T09:21:09;61451.03;;;-140.63;100.00
27032;BME280;14580;52.918;9.214;2022-12-20T09:23:37;61451.03;;;-140.63;100.00
27032;BME280;14580;52.918;9.214;2022-12-20T09:26:13;61451.03;;;-140.63;100.00
27032;BME280;14580;52.918;9.214;2022-12-20T09:28:41;61451.03;;;-140.63;100.00
27032;BME280;14580;52.918;9.214;2022-12-20T09:31:11;61451.03;;;-140.63;100.00
27032;BME280;14580;52.918;9.214;2022-12-20T09:33:38;61451.03;;;-140.63;100.00
27032;BME280;14580;52.918;9.214;2022-12-20T09:36:05;61451.03;;;-140.63;100.00
27032;BME280;14580;52.918;9.214;2022-12-20T09:38:32;61451.03;;;-140.63;100.00
27032;BME280;14580;52.918;9.214;2022-12-20T09:44:40;61451.03;;;-140.63;100.00
27032;BME280;14580;52.918;9.214;2022-12-20T09:47:18;61451.03;;;-140.63;100.00
27032;BME280;14580;52.918;9.214;2022-12-20T09:49:50;61451.03;;;-140.63;100.00
27032;BME280;14580;52.918;9.214;2022-12-20T09:55:00;61451.03;;;-140.63;100.00
27032;BME280;14580;52.918;9.214;2022-12-20T10:00:55;61451.03;;;-140.63;100.00
27032;BME280;14580;52.918;9.214;2022-12-20T10:03:30;61451.03;;;-140.63;100.00
27032;BME280;14580;52.918;9.214;2022-12-20T10:06:39;61451.03;;;-140.63;100.00
27032;BME280;14580;52.918;9.214;2022-12-20T10:24:31;61451.03;;;-140.63;100.00
27032;BME280;14580;52.918;9.214;2022-12-20T10:26:33;61451.03;;;-140.63;100.00
27032;BME280;14580;52.918;9.214;2022-12-20T10:29:00;61451.03;;;-140.63;100.00
27032;BME280;14580;52.918;9.214;2022-12-20T10:31:27;61451.03;;;-140.63;100.00
27032;BME280;14580;52.918;9.214;2022-12-20T10:33:53;61451.03;;;-140.63;100.00
27032;BME280;14580;52.918;9.214;2022-12-20T10:36:27;61451.03;;;-140.63;100.00
27032;BME280;14580;52.918;9.214;2022-12-20T10:38:57;61451.03;;;-140.63;100.00
27032;BME280;14580;52.918;9.214;2022-12-20T10:41:56;61451.03;;;-140.63;100.00
27032;BME280;14580;52.918;9.214;2022-12-20T10:44:28;61451.03;;;-140.63;100.00
27032;BME280;14580;52.918;9.214;2022-12-20T10:46:57;61451.03;;;-140.63;100.00
27032;BME280;14580;52.918;9.214;2022-12-20T10:49:37;61451.03;;;-140.63;100.00
27032;BME280;14580;52.918;9.214;2022-12-20T10:54:43;61451.03;;;-140.63;100.00
27032;BME280;14580;52.918;9.214;2022-12-20T10:57:26;61451.03;;;-140.63;100.00
27032;BME280;14580;52.918;9.214;2022-12-20T10:59:57;61451.03;;;-140.63;100.00
27032;BME280;14580;52.918;9.214;2022-12-20T11:02:34;61451.03;;;-140.63;100.00
27032;BME280;14580;52.918;9.214;2022-12-20T11:07:55;61451.03;;;-140.63;100.00
27032;BME280;14580;52.918;9.214;2022-12-20T11:10:25;61451.03;;;-140.63;100.00
27032;BME280;14580;52.918;9.214;2022-12-20T11:12:59;61451.03;;;-140.63;100.00
27032;BME280;14580;52.918;9.214;2022-12-20T11:15:49;61451.03;;;-140.63;100.00
27032;BME280;14580;52.918;9.214;2022-12-20T11:19:29;61451.03;;;-140.63;100.00
27032;BME280;14580;52.918;9.214;2022-12-20T11:21:59;61451.03;;;-140.63;100.00
27032;BME280;14580;52.918;9.214;2022-12-20T11:34:09;61451.03;;;-140.63;100.00
27032;BME280;14580;52.918;9.214;2022-12-20T11:37:21;61451.03;;;-140.63;100.00
27032;BME280;14580;52.918;9.214;2022-12-20T11:40:32;61451.03;;;-140.63;100.00
27032;BME280;14580;52.918;9.214;2022-12-20T11:43:47;61451.03;;;-140.63;100.00
27032;BME280;14580;52.918;9.214;2022-12-20T11:49:56;61451.03;;;-140.63;100.00
27032;BME280;14580;52.918;9.214;2022-12-20T11:53:14;61451.03;;;-140.63;100.00
27032;BME280;14580;52.918;9.214;2022-12-20T11:55:48;61451.03;;;-140.63;100.00
27032;BME280;14580;52.918;9.214;2022-12-20T11:58:24;61451.03;;;-140.63;100.00
27032;BME280;14580;52.918;9.214;2022-12-20T12:01:06;61451.03;;;-140.63;100.00
27032;BME280;14580;52.918;9.214;2022-12-20T12:03:37;61451.03;;;-140.63;100.00
27032;BME280;14580;52.918;9.214;2022-12-20T12:06:25;61451.03;;;-140.63;100.00
27032;BME280;14580;52.918;9.214;2022-12-20T12:09:27;61451.03;;;-140.63;100.00
27032;BME280;14580;52.918;9.214;2022-12-20T12:12:08;61451.03;;;-140.63;100.00
27032;BME280;14580;52.918;9.214;2022-12-20T12:17:45;61451.03;;;-140.63;100.00
27032;BME280;14580;52.918;9.214;2022-12-20T12:21:01;61451.03;;;-140.63;100.00
27032;BME280;14580;52.918;9.214;2022-12-20T12:26:34;61451.03;;;-140.63;100.00
27032;BME280;14580;52.918;9.214;2022-12-20T12:29:15;61451.03;;;-140.63;100.00
27032;BME280;14580;52.918;9.214;2022-12-20T12:31:57;61451.03;;;-140.63;100.00
27032;BME280;14580;52.918;9.214;2022-12-20T12:37:26;61451.03;;;-140.63;100.00
27032;BME280;14580;52.918;9.214;2022-12-20T12:40:28;61451.03;;;-140.63;100.00
27032;BME280;14580;52.918;9.214;2022-12-20T12:43:28;61451.03;;;-140.63;100.00
27032;BME280;14580;52.918;9.214;2022-12-20T12:46:12;61451.03;;;-140.63;100.00
27032;BME280;14580;52.918;9.214;2022-12-20T12:49:21;61451.03;;;-140.63;100.00
27032;BME280;14580;52.918;9.214;2022-12-20T12:52:01;61451.03;;;-140.63;100.00
27032;BME280;14580;52.918;9.214;2022-12-20T12:54:39;61451.03;;;-140.63;100.00
27032;BME280;14580;52.918;9.214;2022-12-20T12:57:17;61451.03;;;-140.63;100.00
27032;BME280;14580;52.918;9.214;2022-12-20T12:59:49;61451.03;;;-140.63;100.00
27032;BME280;14580;52.918;9.214;2022-12-20T13:18:20;61451.03;;;-140.63;100.00
27032;BME280;14580;52.918;9.214;2022-12-20T13:21:29;61451.03;;;-140.63;100.00
27032;BME280;14580;52.918;9.214;2022-12-20T13:27:13;61451.03;;;-140.63;100.00
27032;BME280;14580;52.918;9.214;2022-12-20T13:44:40;61451.03;;;-140.63;100.00
27032;BME280;14580;52.918;9.214;2022-12-20T13:47:35;61451.03;;;-140.63;100.00
27032;BME280;14580;52.918;9.214;2022-12-20T13:50:34;61451.03;;;-140.63;100.00
27032;BME280;14580;52.918;9.214;2022-12-20T13:53:06;61451.03;;;-140.63;100.00
27032;BME280;14580;52.918;9.214;2022-12-20T13:55:40;61451.03;;;-140.63;100.00
27032;BME280;14580;52.918;9.214;2022-12-20T13:58:27;61451.03;;;-140.63;100.00
27032;BME280;14580;52.918;9.214;2022-12-20T14:01:06;61451.03;;;-140.63;100.00
27032;BME280;14580;52.918;9.214;2022-12-20T14:03:46;61451.03;;;-140.63;100.00
27032;BME280;14580;52.918;9.214;2022-12-20T14:06:18;61451.03;;;-140.63;100.00
27032;BME280;14580;52.918;9.214;2022-12-20T14:08:50;61451.03;;;-140.63;100.00
27032;BME280;14580;52.918;9.214;2022-12-20T14:11:24;61451.03;;;-140.63;100.00
27032;BME280;14580;52.918;9.214;2022-12-20T14:13:57;61451.03;;;-140.63;100.00
27032;BME280;14580;52.918;9.214;2022-12-20T14:16:26;61451.03;;;-140.63;100.00
27032;BME280;14580;52.918;9.214;2022-12-20T14:18:59;61451.03;;;-140.63;100.00
27032;BME280;14580;52.918;9.214;2022-12-20T14:21:26;61451.03;;;-140.63;100.00
27032;BME280;14580;52.918;9.214;2022-12-20T14:23:56;61451.03;;;-140.63;100.00
27032;BME280;14580;52.918;9.214;2022-12-20T14:26:36;61451.03;;;-140.63;100.00
27032;BME280;14580;52.918;9.214;2022-12-20T14:29:10;61451.03;;;-140.63;100.00
27032;BME280;14580;52.918;9.214;2022-12-20T14:31:41;61451.03;;;-140.63;100.00
27032;BME280;14580;52.918;9.214;2022-12-20T14:34:13;61451.03;;;-140.63;100.00
27032;BME280;14580;52.918;9.214;2022-12-20T14:36:44;61451.03;;;-140.63;100.00
27032;BME280;14580;52.918;9.214;2022-12-20T14:39:32;61451.03;;;-140.63;100.00
27032;BME280;14580;52.918;9.214;2022-12-20T14:42:02;61451.03;;;-140.63;100.00
27032;BME280;14580;52.918;9.214;2022-12-20T14:44:37;61451.03;;;-140.63;100.00
27032;BME280;14580;52.918;9.214;2022-12-20T14:47:20;61451.03;;;-140.63;100.00
27032;BME280;14580;52.918;9.214;2022-12-20T14:49:58;61451.03;;;-140.63;100.00
27032;BME280;14580;52.918;9.214;2022-12-20T14:52:38;61451.03;;;-140.63;100.00
27032;BME280;14580;52.918;9.214;2022-12-20T14:55:20;61451.03;;;-140.63;100.00
27032;BME280;14580;52.918;9.214;2022-12-20T14:57:54;61451.03;;;-140.63;100.00
27032;BME280;14580;52.918;9.214;2022-12-20T15:00:32;61451.03;;;-140.63;100.00
27032;BME280;14580;52.918;9.214;2022-12-20T15:03:16;61451.03;;;-140.63;100.00
27032;BME280;14580;52.918;9.214;2022-12-20T15:05:58;61451.03;;;-140.63;100.00
27032;BME280;14580;52.918;9.214;2022-12-20T15:08:31;61451.03;;;-140.63;100.00
27032;BME280;14580;52.918;9.214;2022-12-20T15:13:42;61451.03;;;-140.63;100.00
27032;BME280;14580;52.918;9.214;2022-12-20T15:16:18;61451.03;;;-140.63;100.00
27032;BME280;14580;52.918;9.214;2022-12-20T15:18:46;61451.03;;;-140.63;100.00
27032;BME280;14580;52.918;9.214;2022-12-20T15:23:59;61451.03;;;-140.63;100.00
27032;BME280;14580;52.918;9.214;2022-12-20T15:26:28;61451.03;;;-140.63;100.00
27032;BME280;14580;52.918;9.214;2022-12-20T15:28:56;61451.03;;;-140.63;100.00
27032;BME280;14580;52.918;9.214;2022-12-20T15:31:25;61451.03;;;-140.63;100.00
27032;BME280;14580;52.918;9.214;2022-12-20T15:33:53;61451.03;;;-140.63;100.00
27032;BME280;14580;52.918;9.214;2022-12-20T15:36:26;61451.03;;;-140.63;100.00
27032;BME280;14580;52.918;9.214;2022-12-20T15:38:55;61451.03;;;-140.63;100.00
27032;BME280;14580;52.918;9.214;2022-12-20T15:41:27;61451.03;;;-140.63;100.00
27032;BME280;14580;52.918;9.214;2022-12-20T15:44:04;61451.03;;;-140.63;100.00
27032;BME280;14580;52.918;9.214;2022-12-20T15:46:31;61451.03;;;-140.63;100.00
27032;BME280;14580;52.918;9.214;2022-12-20T15:48:57;61451.03;;;-140.63;100.00
27032;BME280;14580;52.918;9.214;2022-12-20T15:51:33;61451.03;;;-140.63;100.00
27032;BME280;14580;52.918;9.214;2022-12-20T15:54:04;61451.03;;;-140.63;100.00
27032;BME280;14580;52.918;9.214;2022-12-20T15:56:32;61451.03;;;-140.63;100.00
27032;BME280;14580;52.918;9.214;2022-12-20T15:58:58;61451.03;;;-140.63;100.00
27032;BME280;14580;52.918;9.214;2022-12-20T16:01:26;61451.03;;;-140.63;100.00
27032;BME280;14580;52.918;9.214;2022-12-20T16:03:54;61451.03;;;-140.63;100.00
27032;BME280;14580;52.918;9.214;2022-12-20T16:06:20;61451.03;;;-140.63;100.00
27032;BME280;14580;52.918;9.214;2022-12-20T16:08:48;61451.03;;;-140.63;100.00
27032;BME280;14580;52.918;9.214;2022-12-20T16:13:50;61451.03;;;-140.63;100.00
27032;BME280;14580;52.918;9.214;2022-12-20T16:16:27;61451.03;;;-140.63;100.00
27032;BME280;14580;52.918;9.214;2022-12-20T16:18:54;61451.03;;;-140.63;100.00
27032;BME280;14580;52.918;9.214;2022-12-20T16:21:26;61451.03;;;-140.63;100.00
27032;BME280;14580;52.918;9.214;2022-12-20T16:23:55;61451.03;;;-140.63;100.00
27032;BME280;14580;52.918;9.214;2022-12-20T16:26:23;61451.03;;;-140.63;100.00
27032;BME280;14580;52.918;9.214;2022-12-20T16:28:51;61451.03;;;-140.63;100.00
27032;BME280;14580;52.918;9.214;2022-12-20T16:33:49;61451.03;;;-140.63;100.00
27032;BME280;14580;52.918;9.214;2022-12-20T16:36:16;61451.03;;;-140.63;100.00
27032;BME280;14580;52.918;9.214;2022-12-20T16:38:42;61451.03;;;-140.63;100.00
27032;BME280;14580;52.918;9.214;2022-12-20T16:41:18;61451.03;;;-140.63;100.00
27032;BME280;14580;52.918;9.214;2022-12-20T16:43:45;61451.03;;;-140.63;100.00
27032;BME280;14580;52.918;9.214;2022-12-20T16:46:18;61451.03;;;-140.63;100.00
27032;BME280;14580;52.918;9.214;2022-12-20T16:48:45;61451.03;;;-140.63;100.00
27032;BME280;14580;52.918;9.214;2022-12-20T16:54:52;61451.03;;;-140.63;100.00
27032;BME280;14580;52.918;9.214;2022-12-20T16:57:19;61451.03;;;-140.63;100.00
27032;BME280;14580;52.918;9.214;2022-12-20T16:59:46;61451.03;;;-140.63;100.00
27032;BME280;14580;52.918;9.214;2022-12-20T17:02:27;61451.03;;;-140.63;100.00
27032;BME280;14580;52.918;9.214;2022-12-20T17:04:55;61451.03;;;-140.63;100.00
27032;BME280;14580;52.918;9.214;2022-12-20T17:07:21;61451.03;;;-140.63;100.00
27032;BME280;14580;52.918;9.214;2022-12-20T17:09:47;61451.03;;;-140.63;100.00
27032;BME280;14580;52.918;9.214;2022-12-20T17:12:19;61451.03;;;-140.63;100.00
27032;BME280;14580;52.918;9.214;2022-12-20T17:14:46;61451.03;;;-140.63;100.00
27032;BME280;14580;52.918;9.214;2022-12-20T17:17:14;61451.03;;;-140.63;100.00
27032;BME280;14580;52.918;9.214;2022-12-20T17:19:40;61451.03;;;-140.63;100.00
27032;BME280;14580;52.918;9.214;2022-12-20T17:22:09;61451.03;;;-140.63;100.00
27032;BME280;14580;52.918;9.214;2022-12-20T17:24:37;61451.03;;;-140.63;100.00
27032;BME280;14580;52.918;9.214;2022-12-20T17:27:03;61451.03;;;-140.63;100.00
27032;BME280;14580;52.918;9.214;2022-12-20T17:29:29;61451.03;;;-140.63;100.00
27032;BME280;14580;52.918;9.214;2022-12-20T17:31:55;61451.03;;;-140.63;100.00
27032;BME280;14580;52.918;9.214;2022-12-20T17:34:27;61451.03;;;-140.63;100.00
27032;BME280;14580;52.918;9.214;2022-12-20T17:36:56;61451.03;;;-140.63;100.00
27032;BME280;14580;52.918;9.214;2022-12-20T17:39:24;61451.03;;;-140.63;100.00
27032;BME280;14580;52.918;9.214;2022-12-20T17:41:51;61451.03;;;-140.63;100.00
27032;BME280;14580;52.918;9.214;2022-12-20T17:44:25;61451.03;;;-140.63;100.00
27032;BME280;14580;52.918;9.214;2022-12-20T17:46:54;61451.03;;;-140.63;100.00
27032;BME280;14580;52.918;9.214;2022-12-20T17:49:21;61451.03;;;-140.63;100.00
27032;BME280;14580;52.918;9.214;2022-12-20T17:51:50;61451.03;;;-140.63;100.00
27032;BME280;14580;52.918;9.214;2022-12-20T17:54:20;61451.03;;;-140.63;100.00
27032;BME280;14580;52.918;9.214;2022-12-20T17:56:47;61451.03;;;-140.63;100.00
27032;BME280;14580;52.918;9.214;2022-12-20T17:59:15;61451.03;;;-140.63;100.00
27032;BME280;14580;52.918;9.214;2022-12-20T18:01:43;61451.03;;;-140.63;100.00
27032;BME280;14580;52.918;9.214;2022-12-20T18:04:13;61451.03;;;-140.63;100.00
27032;BME280;14580;52.918;9.214;2022-12-20T18:06:42;61451.03;;;-140.63;100.00
27032;BME280;14580;52.918;9.214;2022-12-20T18:09:19;61451.03;;;-140.63;100.00
27032;BME280;14580;52.918;9.214;2022-12-20T18:11:46;61451.03;;;-140.63;100.00
27032;BME280;14580;52.918;9.214;2022-12-20T18:14:14;61451.03;;;-140.63;100.00
27032;BME280;14580;52.918;9.214;2022-12-20T18:16:40;61451.03;;;-140.63;100.00
27032;BME280;14580;52.918;9.214;2022-12-20T18:19:12;61451.03;;;-140.63;100.00
27032;BME280;14580;52.918;9.214;2022-12-20T18:21:39;61451.03;;;-140.63;100.00
27032;BME280;14580;52.918;9.214;2022-12-20T18:24:10;61451.03;;;-140.63;100.00
27032;BME280;14580;52.918;9.214;2022-12-20T18:26:36;61451.03;;;-140.63;100.00
27032;BME280;14580;52.918;9.214;2022-12-20T18:29:02;61451.03;;;-140.63;100.00
27032;BME280;14580;52.918;9.214;2022-12-20T18:31:32;61451.03;;;-140.63;100.00
27032;BME280;14580;52.918;9.214;2022-12-20T18:34:00;61451.03;;;-140.63;100.00
27032;BME280;14580;52.918;9.214;2022-12-20T18:36:35;61451.03;;;-140.63;100.00
27032;BME280;14580;52.918;9.214;2022-12-20T18:39:05;61451.03;;;-140.63;100.00
27032;BME280;14580;52.918;9.214;2022-12-20T18:41:32;61451.03;;;-140.63;100.00
27032;BME280;14580;52.918;9.214;2022-12-20T18:44:01;61451.03;;;-140.63;100.00
27032;BME280;14580;52.918;9.214;2022-12-20T18:46:28;61451.03;;;-140.63;100.00
27032;BME280;14580;52.918;9.214;2022-12-20T18:48:56;61451.03;;;-140.63;100.00
27032;BME280;14580;52.918;9.214;2022-12-20T18:51:26;61451.03;;;-140.63;100.00
27032;BME280;14580;52.918;9.214;2022-12-20T18:53:55;61451.03;;;-140.63;100.00
27032;BME280;14580;52.918;9.214;2022-12-20T18:56:34;61451.03;;;-140.63;100.00
27032;BME280;14580;52.918;9.214;2022-12-20T18:59:03;61451.03;;;-140.63;100.00
27032;BME280;14580;52.918;9.214;2022-12-20T19:01:33;61451.03;;;-140.63;100.00
27032;BME280;14580;52.918;9.214;2022-12-20T19:04:02;61451.03;;;-140.63;100.00
27032;BME280;14580;52.918;9.214;2022-12-20T19:06:33;61451.03;;;-140.63;100.00
27032;BME280;14580;52.918;9.214;2022-12-20T19:09:01;61451.03;;;-140.63;100.00
27032;BME280;14580;52.918;9.214;2022-12-20T19:11:31;61451.03;;;-140.63;100.00
27032;BME280;14580;52.918;9.214;2022-12-20T19:13:57;61451.03;;;-140.63;100.00
27032;BME280;14580;52.918;9.214;2022-12-20T19:16:57;61451.03;;;-140.63;100.00
27032;BME280;14580;52.918;9.214;2022-12-20T19:19:24;61451.03;;;-140.63;100.00
27032;BME280;14580;52.918;9.214;2022-12-20T19:21:52;61451.03;;;-140.63;100.00
27032;BME280;14580;52.918;9.214;2022-12-20T19:24:18;61451.03;;;-140.63;100.00
27032;BME280;14580;52.918;9.214;2022-12-20T19:30:36;61451.03;;;-140.63;100.00
27032;BME280;14580;52.918;9.214;2022-12-20T19:33:08;61451.03;;;-140.63;100.00
27032;BME280;14580;52.918;9.214;2022-12-20T19:36:11;61451.03;;;-140.63;100.00
27032;BME280;14580;52.918;9.214;2022-12-20T19:41:54;61451.03;;;-140.63;100.00
27032;BME280;14580;52.918;9.214;2022-12-20T19:44:20;61451.03;;;-140.63;100.00
27032;BME280;14580;52.918;9.214;2022-12-20T19:46:51;61451.03;;;-140.63;100.00
27032;BME280;14580;52.918;9.214;2022-12-20T19:49:19;61451.03;;;-140.63;100.00
27032;BME280;14580;52.918;9.214;2022-12-20T19:51:47;61451.03;;;-140.63;100.00
27032;BME280;14580;52.918;9.214;2022-12-20T19:54:14;61451.03;;;-140.63;100.00
27032;BME280;14580;52.918;9.214;2022-12-20T19:56:40;61451.03;;;-140.63;100.00
27032;BME280;14580;52.918;9.214;2022-12-20T19:59:07;61451.03;;;-140.63;100.00
27032;BME280;14580;52.918;9.214;2022-12-20T20:01:36;61451.03;;;-140.63;100.00
27032;BME280;14580;52.918;9.214;2022-12-20T20:04:02;61451.03;;;-140.63;100.00
27032;BME280;14580;52.918;9.214;2022-12-20T20:06:30;61451.03;;;-140.63;100.00
27032;BME280;14580;52.918;9.214;2022-12-20T20:08:57;61451.03;;;-140.63;100.00
27032;BME280;14580;52.918;9.214;2022-12-20T20:11:25;61451.03;;;-140.63;100.00
27032;BME280;14580;52.918;9.214;2022-12-20T20:13:52;61451.03;;;-140.63;100.00
27032;BME280;14580;52.918;9.214;2022-12-20T20:16:18;61451.03;;;-140.63;100.00
27032;BME280;14580;52.918;9.214;2022-12-20T20:18:46;61451.03;;;-140.63;100.00
27032;BME280;14580;52.918;9.214;2022-12-20T20:21:15;61451.03;;;-140.63;100.00
27032;BME280;14580;52.918;9.214;2022-12-20T20:23:46;61451.03;;;-140.63;100.00
27032;BME280;14580;52.918;9.214;2022-12-20T20:26:15;61451.03;;;-140.63;100.00
27032;BME280;14580;52.918;9.214;2022-12-20T20:28:41;61451.03;;;-140.63;100.00
27032;BME280;14580;52.918;9.214;2022-12-20T20:31:13;61451.03;;;-140.63;100.00
27032;BME280;14580;52.918;9.214;2022-12-20T20:33:41;61451.03;;;-140.63;100.00
27032;BME280;14580;52.918;9.214;2022-12-20T20:36:11;61451.03;;;-140.63;100.00
27032;BME280;14580;52.918;9.214;2022-12-20T20:38:38;61451.03;;;-140.63;100.00
27032;BME280;14580;52.918;9.214;2022-12-20T20:41:05;61451.03;;;-140.63;100.00
27032;BME280;14580;52.918;9.214;2022-12-20T20:43:31;61451.03;;;-140.63;100.00
27032;BME280;14580;52.918;9.214;2022-12-20T20:46:07;61451.03;;;-140.63;100.00
27032;BME280;14580;52.918;9.214;2022-12-20T20:48:34;61451.03;;;-140.63;100.00
27032;BME280;14580;52.918;9.214;2022-12-20T20:51:01;61451.03;;;-140.63;100.00
27032;BME280;14580;52.918;9.214;2022-12-20T20:53:27;61451.03;;;-140.63;100.00
27032;BME280;14580;52.918;9.214;2022-12-20T20:55:54;61451.03;;;-140.63;100.00
27032;BME280;14580;52.918;9.214;2022-12-20T20:58:20;61451.03;;;-140.63;100.00
27032;BME280;14580;52.918;9.214;2022-12-20T21:00:50;61451.03;;;-140.63;100.00
27032;BME280;14580;52.918;9.214;2022-12-20T21:03:17;61451.03;;;-140.63;100.00
27032;BME280;14580;52.918;9.214;2022-12-20T21:05:44;61451.03;;;-140.63;100.00
27032;BME280;14580;52.918;9.214;2022-12-20T21:08:10;61451.03;;;-140.63;100.00
27032;BME280;14580;52.918;9.214;2022-12-20T21:10:37;61451.03;;;-140.63;100.00
27032;BME280;14580;52.918;9.214;2022-12-20T21:13:04;61451.03;;;-140.63;100.00
27032;BME280;14580;52.918;9.214;2022-12-20T21:15:31;61451.03;;;-140.63;100.00